Aérodrome :
LOGIN :

S'inscrire | Disclaimer

   EN    FR    IT 

 










Légende :    VFR   VFR Marginal   IFR   IFR Intensif   IFR Très Intensif
Visi : 
Plafond : 
>= 8 km
>= 3000ft
5 à 8 km
1000 à 3000 ft
1500m à 5 km
500 à 1000 ft
800 à 1500m
200 à 500 ft
< 800m
< 200 ft
Symboles :   Orages  Brouillard  Fortes neiges  Fortes précipitations  Vent > 20 kt
SIGMETs :   Divers  Orages  Givrage  Turbulence  Onde Orograph.  Cendres Volcan.






- Altitude de l'aérodrome : 370 ft


EBBE - Beauvechain AB

DERNIER METAR :
  • 140355Z AUTO 12003KT 9999 NCD 12/12 Q1013 BLU

METARs EXPIRÉS :
  • 140325Z AUTO VRB02KT 9999 FEW250/// 13/12 Q1013 BLU
  • 140255Z AUTO 18003KT 9999 NCD 13/12 Q1013 BLU
  • 140225Z AUTO 16005KT 9999 NCD 13/12 Q1013 BLU
  • 140155Z AUTO VRB02KT 9999 FEW070/// SCT160/// 13/12 Q1013 BLU
  • 140125Z AUTO 18004KT 9999 BKN160/// 14/12 Q1014 BLU

Prévision TAF périmée.



MET'MAP, la Météo Aéronautique d'un coup d'oeil ! - Copyright ORBIFLY Décembre 2007 - Disclaimer

ORBIFLY MET'MAP TEAM :

Programmation & Développement : Alexandra Zaïnal
Conception & Développement : Baudouin d'Aumeries
Co-Programmation & Développement : Marc-Olivier Méhu
Soutien technique & logistique : Manuel Goepfert

Contact : metmap@orbifly.com




SOURCES & CREDITS :

   NOAA